Time;durP1;ratioP1;P1;durP2;ratioP2;P2;SDS_P1;SDS_P2;PMS_P1;PMS_P2;Temp;Humidity;BMP_temperature;BMP_pressure;BME280_temperature;BME280_humidity;BME280_pressure;Samples;Min_cycle;Max_cycle;Signal;HPM_P1;HPM_P2
2023/04/08 00:00:49;;;;;;;;;;;;;;;26.85;39.99;94384.66;4912338;29;7477;-56
2023/04/08 00:03:17;;;;;;;;;;;;;;;26.87;39.67;94384.88;4927842;28;7040;-56
2023/04/08 00:05:43;;;;;;;;;;;;;;;26.85;40.08;94382.66;4929786;28;7216;-56
2023/04/08 00:08:09;;;;;;;;;;;;;;;26.84;39.90;94375.63;4911336;29;9632;-56
2023/04/08 00:10:35;;;;;;;;;;;;;;;26.84;39.91;94383.16;4931284;29;9140;-56
2023/04/08 00:13:04;;;;;;;;;;;;;;;26.85;39.55;94381.91;4923032;29;7058;-56
2023/04/08 00:15:30;;;;;;;;;;;;;;;26.88;39.70;94386.38;4915498;29;7324;-56
2023/04/08 00:17:56;;;;;;;;;;;;;;;26.83;39.91;94376.16;4938132;28;9023;-56
2023/04/08 00:20:28;;;;;;;;;;;;;;;26.83;40.09;94373.38;4994312;28;7191;-56
2023/04/08 00:22:54;;;;;;;;;;;;;;;26.82;39.86;94382.94;5003557;28;7026;-56
2023/04/08 00:25:20;;;;;;;;;;;;;;;26.84;39.51;94378.38;5005319;28;7228;-56
2023/04/08 00:27:45;;;;;;;;;;;;;;;26.81;39.78;94371.16;5001475;28;8776;-56
2023/04/08 00:30:14;;;;;;;;;;;;;;;26.83;39.94;94379.66;4992084;28;8971;-56
2023/04/08 00:32:40;;;;;;;;;;;;;;;26.82;39.56;94369.13;4984454;28;8736;-56
2023/04/08 00:35:11;;;;;;;;;;;;;;;26.87;39.64;94369.06;5012604;28;7037;-56
2023/04/08 00:37:40;;;;;;;;;;;;;;;26.86;39.68;94364.09;5007516;28;8987;-56
2023/04/08 00:40:06;;;;;;;;;;;;;;;26.83;39.62;94362.34;5002188;28;8953;-56
2023/04/08 00:42:32;;;;;;;;;;;;;;;26.83;39.49;94367.88;5001772;28;9000;-56
2023/04/08 00:45:00;;;;;;;;;;;;;;;26.83;39.75;94370.63;4979033;28;7024;-56
2023/04/08 00:47:28;;;;;;;;;;;;;;;26.82;39.94;94372.63;4991444;28;7250;-56
2023/04/08 00:50:26;;;;;;;;;;;;;;;26.78;39.79;94371.44;4981001;28;7345;-56
2023/04/08 00:52:54;;;;;;;;;;;;;;;26.78;39.63;94365.91;5006487;28;7503;-56
2023/04/08 00:55:41;;;;;;;;;;;;;;;26.78;39.85;94361.16;5019580;28;7247;-56
2023/04/08 00:58:10;;;;;;;;;;;;;;;26.80;39.49;94364.13;4989876;28;9368;-56
2023/04/08 01:00:45;;;;;;;;;;;;;;;26.80;39.71;94371.66;4998830;28;7366;-56
2023/04/08 01:03:45;;;;;;;;;;;;;;;26.77;39.76;94369.97;4989177;28;9012;-56
2023/04/08 01:06:35;;;;;;;;;;;;;;;26.76;40.10;94366.44;4985442;28;7413;-56
2023/04/08 01:09:04;;;;;;;;;;;;;;;26.74;39.97;94366.22;4999439;28;7280;-57
2023/04/08 01:11:34;;;;;;;;;;;;;;;26.76;40.14;94371.22;4983549;28;8823;-56
2023/04/08 01:14:09;;;;;;;;;;;;;;;26.75;40.35;94375.25;4993057;28;7052;-56
2023/04/08 01:16:40;;;;;;;;;;;;;;;26.74;39.93;94371.75;4988423;28;7057;-56
2023/04/08 01:19:08;;;;;;;;;;;;;;;26.76;39.82;94373.97;4990746;28;9703;-56
2023/04/08 01:21:37;;;;;;;;;;;;;;;26.79;39.50;94378.47;5003215;28;7090;-56
2023/04/08 01:24:32;;;;;;;;;;;;;;;26.78;39.41;94374.19;4982722;28;7075;-56
2023/04/08 01:27:00;;;;;;;;;;;;;;;26.77;39.57;94369.97;4974911;28;7279;-56
2023/04/08 01:29:32;;;;;;;;;;;;;;;26.75;40.23;94367.69;4974628;28;9439;-56
2023/04/08 01:32:01;;;;;;;;;;;;;;;26.75;39.96;94372.50;4991084;28;6907;-56
2023/04/08 01:34:29;;;;;;;;;;;;;;;26.76;39.50;94368.44;4987434;28;7081;-56
2023/04/08 01:36:57;;;;;;;;;;;;;;;26.75;40.11;94372.50;4994349;28;7186;-56
2023/04/08 01:39:27;;;;;;;;;;;;;;;26.71;40.05;94367.22;4988537;28;9019;-56
2023/04/08 01:41:56;;;;;;;;;;;;;;;26.66;39.83;94365.28;4983100;28;7685;-56
2023/04/08 01:44:25;;;;;;;;;;;;;;;26.65;40.10;94363.03;4985848;28;7253;-56
2023/04/08 01:46:57;;;;;;;;;;;;;;;26.63;39.77;94368.31;4974659;28;9327;-56
2023/04/08 01:49:25;;;;;;;;;;;;;;;26.62;40.45;94361.31;4980822;28;7054;-56
2023/04/08 01:51:57;;;;;;;;;;;;;;;26.56;40.33;94361.38;4989132;28;7312;-56
2023/04/08 01:54:26;;;;;;;;;;;;;;;26.57;40.59;94362.13;4994835;28;7180;-56
2023/04/08 01:56:56;;;;;;;;;;;;;;;26.56;40.47;94366.88;5010513;28;8221;-56
2023/04/08 01:59:35;;;;;;;;;;;;;;;26.56;39.84;94363.38;4985533;28;9709;-56
2023/04/08 02:02:12;;;;;;;;;;;;;;;26.58;40.53;94366.34;4987353;28;9543;-56
2023/04/08 02:04:38;;;;;;;;;;;;;;;26.56;39.83;94366.88;5001532;28;9273;-56
2023/04/08 02:07:10;;;;;;;;;;;;;;;26.54;40.09;94363.13;4985245;28;9016;-56
2023/04/08 02:09:36;;;;;;;;;;;;;;;26.51;40.44;94359.41;4974600;28;7250;-56
2023/04/08 02:12:05;;;;;;;;;;;;;;;26.53;39.95;94367.19;5003916;28;7193;-56
2023/04/08 02:14:34;;;;;;;;;;;;;;;26.55;39.99;94376.44;4999548;28;7044;-56
2023/04/08 02:17:49;;;;;;;;;;;;;;;26.52;39.86;94371.19;4991278;28;8873;-56
2023/04/08 02:20:18;;;;;;;;;;;;;;;26.51;40.06;94375.94;4976652;28;7274;-56
2023/04/08 02:23:04;;;;;;;;;;;;;;;26.51;40.46;94367.69;4971640;28;7222;-56
2023/04/08 02:25:42;;;;;;;;;;;;;;;26.52;40.20;94374.69;4953202;28;7270;-56
2023/04/08 02:28:11;;;;;;;;;;;;;;;26.53;40.40;94369.94;4969652;28;6956;-56
2023/04/08 02:30:42;;;;;;;;;;;;;;;26.54;39.79;94368.66;4977861;28;7030;-56
2023/04/08 02:33:11;;;;;;;;;;;;;;;26.48;40.16;94381.75;4965888;28;7238;-56
2023/04/08 02:35:40;;;;;;;;;;;;;;;26.47;40.38;94377.53;4975357;28;7100;-56
2023/04/08 02:38:19;;;;;;;;;;;;;;;26.46;40.21;94378.78;4969573;28;8673;-56
2023/04/08 02:40:49;;;;;;;;;;;;;;;26.41;40.56;94374.81;4971485;28;8771;-56
2023/04/08 02:43:16;;;;;;;;;;;;;;;26.42;40.07;94379.06;4980156;28;8367;-56
2023/04/08 02:45:43;;;;;;;;;;;;;;;26.43;40.38;94377.78;4980605;28;8645;-56
2023/04/08 02:48:10;;;;;;;;;;;;;;;26.42;40.01;94378.31;4960327;28;7529;-56
2023/04/08 02:50:36;;;;;;;;;;;;;;;26.43;40.34;94377.03;4983279;28;7467;-56
2023/04/08 02:53:03;;;;;;;;;;;;;;;26.42;40.39;94378.31;4981876;28;8266;-56
2023/04/08 02:55:29;;;;;;;;;;;;;;;26.42;40.27;94379.06;4967416;28;7049;-56
2023/04/08 02:58:22;;;;;;;;;;;;;;;26.43;40.00;94383.31;4997593;28;9104;-56
2023/04/08 03:00:55;;;;;;;;;;;;;;;26.38;40.84;94383.38;4996391;28;7011;-56
2023/04/08 03:03:49;;;;;;;;;;;;;;;26.40;40.56;94386.38;4988671;28;9135;-56
2023/04/08 03:06:27;;;;;;;;;;;;;;;26.38;40.68;94377.88;4977617;28;7064;-56
2023/04/08 03:09:04;;;;;;;;;;;;;;;26.35;40.15;94382.41;4992806;28;7289;-56
2023/04/08 03:11:40;;;;;;;;;;;;;;;26.33;40.26;94381.41;4984517;28;7337;-56
2023/04/08 03:14:07;;;;;;;;;;;;;;;26.34;40.70;94375.38;4983767;28;8730;-56
2023/04/08 03:16:44;;;;;;;;;;;;;;;26.36;40.24;94385.91;4975354;28;7281;-56
2023/04/08 03:19:26;;;;;;;;;;;;;;;26.33;40.94;94381.41;4977368;28;9297;-56
2023/04/08 03:21:52;;;;;;;;;;;;;;;26.32;40.82;94382.69;4973763;28;7378;-56
2023/04/08 03:24:19;;;;;;;;;;;;;;;26.31;40.88;94394.97;4988105;28;7210;-56
2023/04/08 03:26:55;;;;;;;;;;;;;;;26.30;40.76;94393.47;4963184;28;9132;-56
2023/04/08 03:29:21;;;;;;;;;;;;;;;26.30;40.56;94396.22;4988925;28;8726;-56
2023/04/08 03:32:04;;;;;;;;;;;;;;;26.29;40.53;94391.97;4962325;28;7427;-56
2023/04/08 03:34:34;;;;;;;;;;;;;;;26.29;41.00;94401.00;4989613;28;7341;-55
2023/04/08 03:37:00;;;;;;;;;;;;;;;26.28;41.21;94393.22;4978009;28;7031;-55
2023/04/08 03:39:27;;;;;;;;;;;;;;;26.27;40.54;94391.75;4989258;28;9349;-55
2023/04/08 03:41:53;;;;;;;;;;;;;;;26.27;40.70;94397.25;4976535;28;7166;-56
2023/04/08 03:44:35;;;;;;;;;;;;;;;26.28;40.33;94390.47;5003284;28;9988;-56
2023/04/08 03:47:29;;;;;;;;;;;;;;;26.28;40.30;94390.47;5003957;28;7442;-55
2023/04/08 03:50:02;;;;;;;;;;;;;;;26.26;40.73;94388.25;4996334;28;7278;-56
2023/04/08 03:52:44;;;;;;;;;;;;;;;26.25;40.42;94381.25;5004595;28;9112;-56
2023/04/08 03:55:24;;;;;;;;;;;;;;;26.28;40.72;94393.97;4987281;28;7268;-55
2023/04/08 03:57:58;;;;;;;;;;;;;;;26.30;40.44;94390.69;4995068;28;7333;-55
2023/04/08 04:00:34;;;;;;;;;;;;;;;26.28;40.82;94382.19;4993258;28;7905;-55
2023/04/08 04:03:11;;;;;;;;;;;;;;;26.27;41.04;94383.47;4977828;28;9079;-56
2023/04/08 04:05:47;;;;;;;;;;;;;;;26.26;40.72;94385.47;4992163;28;7372;-56
2023/04/08 04:08:32;;;;;;;;;;;;;;;26.25;41.16;94389.53;4995718;28;7815;-56
2023/04/08 04:11:02;;;;;;;;;;;;;;;26.25;40.98;94389.53;4987118;28;7025;-56
2023/04/08 04:13:30;;;;;;;;;;;;;;;26.24;40.30;94381.75;4993595;28;7060;-56
2023/04/08 04:16:11;;;;;;;;;;;;;;;26.23;41.03;94380.25;4987862;28;7261;-56
2023/04/08 04:18:46;;;;;;;;;;;;;;;26.24;41.23;94384.50;5010734;28;7054;-56
2023/04/08 04:21:24;;;;;;;;;;;;;;;26.23;40.53;94383.75;4998188;28;7128;-56
2023/04/08 04:24:27;;;;;;;;;;;;;;;26.24;40.25;94390.00;4996992;28;7130;-56
2023/04/08 04:27:03;;;;;;;;;;;;;;;26.23;41.05;94399.56;4943494;28;7282;-56
2023/04/08 04:29:30;;;;;;;;;;;;;;;26.23;40.73;94399.56;4917331;29;9465;-56
2023/04/08 04:31:56;;;;;;;;;;;;;;;26.23;41.02;94396.81;4933308;29;9143;-56
2023/04/08 04:34:24;;;;;;;;;;;;;;;26.23;41.02;94402.31;4933173;28;7058;-56
2023/04/08 04:36:54;;;;;;;;;;;;;;;26.21;41.20;94389.03;4916212;29;7122;-56
2023/04/08 04:39:20;;;;;;;;;;;;;;;26.21;41.26;94402.09;4951720;28;9481;-56
2023/04/08 04:41:47;;;;;;;;;;;;;;;26.21;40.18;94404.84;4941960;28;7034;-56
2023/04/08 04:44:48;;;;;;;;;;;;;;;26.22;40.46;94403.56;4935293;28;7368;-55
2023/04/08 04:47:22;;;;;;;;;;;;;;;26.19;40.25;94405.34;4915990;29;9152;-55
2023/04/08 04:49:48;;;;;;;;;;;;;;;26.20;40.53;94408.84;4943332;28;9179;-56
2023/04/08 04:52:14;;;;;;;;;;;;;;;26.20;41.19;94409.59;4931016;29;7092;-56
2023/04/08 04:54:40;;;;;;;;;;;;;;;26.17;41.13;94400.34;4906849;29;9343;-56
2023/04/08 04:57:06;;;;;;;;;;;;;;;26.18;40.46;94412.13;4917096;29;7300;-56
2023/04/08 04:59:32;;;;;;;;;;;;;;;26.21;40.31;94413.13;4931190;29;9112;-56
2023/04/08 05:02:11;;;;;;;;;;;;;;;26.19;40.89;94418.41;4999004;28;7027;-56
2023/04/08 05:04:44;;;;;;;;;;;;;;;26.20;41.02;94415.13;5004934;28;6974;-56
2023/04/08 05:07:21;;;;;;;;;;;;;;;26.16;41.13;94420.91;4987336;28;7480;-56
2023/04/08 05:09:49;;;;;;;;;;;;;;;26.17;40.74;94419.66;4993762;28;9024;-56
2023/04/08 05:12:26;;;;;;;;;;;;;;;26.15;40.48;94419.41;4986478;28;9003;-56
2023/04/08 05:14:53;;;;;;;;;;;;;;;26.17;40.70;94427.91;4977933;28;9081;-56
2023/04/08 05:17:25;;;;;;;;;;;;;;;26.17;40.48;94422.41;4987711;28;8922;-56
2023/04/08 05:20:11;;;;;;;;;;;;;;;26.20;41.19;94422.63;5006330;28;7357;-56
2023/04/08 05:22:44;;;;;;;;;;;;;;;26.18;41.15;94423.16;4977971;28;7462;-56
2023/04/08 05:25:23;;;;;;;;;;;;;;;26.20;40.95;94428.16;5002596;28;9309;-56
2023/04/08 05:27:58;;;;;;;;;;;;;;;26.16;40.72;94431.19;4996746;28;7214;-56
2023/04/08 05:30:27;;;;;;;;;;;;;;;26.19;40.85;94435.66;4995583;28;7076;-56
2023/04/08 05:33:26;;;;;;;;;;;;;;;26.18;40.94;94428.66;4986342;28;7247;-56
2023/04/08 05:35:53;;;;;;;;;;;;;;;26.19;41.23;94434.94;4989684;28;7582;-56
2023/04/08 05:38:35;;;;;;;;;;;;;;;26.23;41.25;94438.16;4994285;28;7472;-56
2023/04/08 05:41:01;;;;;;;;;;;;;;;26.27;40.89;94442.13;4993053;28;7082;-56
2023/04/08 05:43:52;;;;;;;;;;;;;;;26.32;40.80;94437.84;4984899;28;8820;-56
2023/04/08 05:46:20;;;;;;;;;;;;;;;26.31;41.41;94444.59;4994967;28;9379;-55
2023/04/08 05:48:46;;;;;;;;;;;;;;;26.29;40.53;94439.63;5002608;28;7221;-56
2023/04/08 05:51:13;;;;;;;;;;;;;;;26.33;40.69;94444.84;4991708;28;7271;-56
2023/04/08 05:53:43;;;;;;;;;;;;;;;26.30;40.65;94443.84;4994457;28;8929;-56
2023/04/08 05:56:37;;;;;;;;;;;;;;;26.37;40.45;94448.06;4993886;28;7514;-55
2023/04/08 05:59:04;;;;;;;;;;;;;;;26.38;40.67;94455.09;5000908;28;7280;-56
2023/04/08 06:01:38;;;;;;;;;;;;;;;26.44;40.14;94453.78;4976720;28;9347;-56
2023/04/08 06:04:13;;;;;;;;;;;;;;;26.46;40.50;94461.53;5011949;28;7428;-55
2023/04/08 06:06:41;;;;;;;;;;;;;;;26.48;40.76;94464.50;4985892;28;7528;-56
2023/04/08 06:09:41;;;;;;;;;;;;;;;26.46;40.29;94467.78;4993248;28;7971;-56
2023/04/08 06:12:07;;;;;;;;;;;;;;;26.48;40.22;94472.78;5009758;28;7296;-56
2023/04/08 06:14:33;;;;;;;;;;;;;;;26.51;40.57;94466.25;4987427;28;8780;-56
2023/04/08 06:17:19;;;;;;;;;;;;;;;26.49;40.28;94466.03;4986801;28;9100;-56
2023/04/08 06:20:16;;;;;;;;;;;;;;;26.46;40.53;94476.06;4999426;28;7358;-56
2023/04/08 06:22:58;;;;;;;;;;;;;;;26.39;40.23;94468.34;4988862;28;9482;-56
2023/04/08 06:25:54;;;;;;;;;;;;;;;26.37;41.17;94472.88;5006284;28;7057;-56
2023/04/08 06:28:30;;;;;;;;;;;;;;;26.31;40.48;94474.94;5006166;28;7275;-56
2023/04/08 06:31:04;;;;;;;;;;;;;;;26.34;40.49;94473.91;4988393;28;7246;-56
2023/04/08 06:33:37;;;;;;;;;;;;;;;26.35;40.94;94476.16;5014724;28;7180;-56
2023/04/08 06:36:16;;;;;;;;;;;;;;;26.39;40.55;94473.09;5009273;28;7235;-56
2023/04/08 06:38:43;;;;;;;;;;;;;;;26.43;40.94;94468.81;5000731;28;9293;-56
2023/04/08 06:41:11;;;;;;;;;;;;;;;26.41;40.05;94471.34;5014084;28;7035;-56
2023/04/08 06:44:04;;;;;;;;;;;;;;;26.37;40.35;94467.34;5000404;28;8410;-55
2023/04/08 06:46:44;;;;;;;;;;;;;;;26.32;40.74;94465.41;5008614;28;9384;-56
2023/04/08 06:49:22;;;;;;;;;;;;;;;26.30;40.81;94473.44;4992150;28;7461;-55
2023/04/08 06:52:06;;;;;;;;;;;;;;;26.30;40.50;94474.19;4996808;28;7558;-55
2023/04/08 06:54:50;;;;;;;;;;;;;;;26.32;41.20;94476.44;4996849;28;7052;-56
2023/04/08 06:57:16;;;;;;;;;;;;;;;26.33;40.95;94483.44;4986350;28;8715;-55
2023/04/08 06:59:42;;;;;;;;;;;;;;;26.32;41.10;94479.94;5000849;28;7031;-56
2023/04/08 07:02:15;;;;;;;;;;;;;;;26.27;41.35;94471.72;4987221;28;8990;-56
2023/04/08 07:04:41;;;;;;;;;;;;;;;26.27;40.86;94477.22;5002738;28;7061;-55
2023/04/08 07:07:24;;;;;;;;;;;;;;;26.25;40.71;94479.75;4992334;28;8998;-55
2023/04/08 07:10:23;;;;;;;;;;;;;;;26.23;41.30;94480.25;5006056;28;7782;-56
2023/04/08 07:13:14;;;;;;;;;;;;;;;26.26;41.01;94475.72;4984583;28;7450;-56
2023/04/08 07:15:42;;;;;;;;;;;;;;;26.25;40.58;94474.22;4982635;28;9508;-56
2023/04/08 07:18:17;;;;;;;;;;;;;;;26.25;40.68;94479.75;4983720;28;6862;-56
2023/04/08 07:21:30;;;;;;;;;;;;;;;26.24;41.37;94489.28;4981500;28;7061;-56
2023/04/08 07:24:14;;;;;;;;;;;;;;;26.24;40.82;94492.03;4953854;28;7466;-55
2023/04/08 07:26:41;;;;;;;;;;;;;;;26.23;40.90;94491.28;4939123;28;7283;-56
2023/04/08 07:29:08;;;;;;;;;;;;;;;26.21;41.81;94488.28;4937971;28;8924;-56
2023/04/08 07:31:34;;;;;;;;;;;;;;;26.19;41.25;94490.81;4936037;28;6982;-56
2023/04/08 07:34:04;;;;;;;;;;;;;;;26.20;40.78;94491.56;4936386;28;8853;-55
2023/04/08 07:36:46;;;;;;;;;;;;;;;26.20;41.59;94494.31;4948981;28;9480;-56
2023/04/08 07:39:42;;;;;;;;;;;;;;;26.20;41.06;94500.59;4935330;28;7101;-56
2023/04/08 07:42:08;;;;;;;;;;;;;;;26.23;41.24;94496.78;4936514;28;7282;-56
2023/04/08 07:44:34;;;;;;;;;;;;;;;26.32;41.21;94495.75;4930069;28;6919;-56
2023/04/08 07:47:00;;;;;;;;;;;;;;;26.38;41.10;94499.94;4931031;28;8968;-56
2023/04/08 07:49:30;;;;;;;;;;;;;;;26.38;40.63;94499.94;4935695;28;9228;-56
2023/04/08 07:51:56;;;;;;;;;;;;;;;26.37;40.31;94501.22;4948972;28;7260;-56
2023/04/08 07:54:26;;;;;;;;;;;;;;;26.40;40.85;94505.72;4938118;28;7248;-56
2023/04/08 07:56:52;;;;;;;;;;;;;;;26.34;40.18;94504.97;4945164;28;7250;-56
2023/04/08 07:59:18;;;;;;;;;;;;;;;26.34;40.17;94509.78;4940107;28;7681;-56
2023/04/08 08:01:45;;;;;;;;;;;;;;;26.34;40.86;94515.28;4985993;28;7143;-56
2023/04/08 08:04:13;;;;;;;;;;;;;;;26.38;40.57;94515.75;4989171;28;10279;-56
2023/04/08 08:06:56;;;;;;;;;;;;;;;26.36;40.85;94521.75;4989121;28;7262;-56
2023/04/08 08:09:21;;;;;;;;;;;;;;;26.40;40.78;94521.50;4994205;28;9484;-56
2023/04/08 08:11:56;;;;;;;;;;;;;;;26.41;40.66;94520.22;5001754;28;7886;-56
2023/04/08 08:14:25;;;;;;;;;;;;;;;26.46;40.29;94522.19;4985187;28;7180;-55
2023/04/08 08:16:53;;;;;;;;;;;;;;;26.50;40.62;94519.91;4991996;28;9078;-56
2023/04/08 08:19:27;;;;;;;;;;;;;;;26.47;40.01;94513.41;4994392;28;7238;-56
2023/04/08 08:22:21;;;;;;;;;;;;;;;26.47;40.36;94534.75;4993317;28;8709;-56
2023/04/08 08:25:12;;;;;;;;;;;;;;;26.48;40.76;94527.94;4985275;28;6857;-55
2023/04/08 08:27:41;;;;;;;;;;;;;;;26.50;40.75;94530.94;5014485;28;7059;-56
2023/04/08 08:30:08;;;;;;;;;;;;;;;26.52;40.14;94525.66;5001686;28;9287;-56
2023/04/08 08:32:39;;;;;;;;;;;;;;;26.54;39.97;94528.66;4987453;28;7011;-56
2023/04/08 08:35:09;;;;;;;;;;;;;;;26.54;40.39;94526.66;4993403;28;9373;-56
2023/04/08 08:37:35;;;;;;;;;;;;;;;26.51;40.36;94529.69;4989091;28;9515;-56
2023/04/08 08:40:02;;;;;;;;;;;;;;;26.50;39.82;94533.69;5010092;28;7265;-56
2023/04/08 08:42:31;;;;;;;;;;;;;;;26.46;40.38;94536.00;4984788;28;7347;-56
2023/04/08 08:45:02;;;;;;;;;;;;;;;26.51;40.37;94532.44;4987652;28;7190;-57
2023/04/08 08:47:30;;;;;;;;;;;;;;;26.54;39.34;94534.16;4990110;28;9312;-56
2023/04/08 08:49:56;;;;;;;;;;;;;;;26.55;39.83;94530.91;4999467;28;7011;-56
2023/04/08 08:52:24;;;;;;;;;;;;;;;26.50;39.60;94539.22;4990632;28;7185;-56
2023/04/08 08:55:03;;;;;;;;;;;;;;;26.44;40.56;94533.75;4988833;28;9077;-57
2023/04/08 08:57:31;;;;;;;;;;;;;;;26.43;40.32;94528.72;4993560;28;8003;-56
2023/04/08 08:59:59;;;;;;;;;;;;;;;26.44;39.99;94533.00;4991908;28;9441;-56
2023/04/08 09:02:30;;;;;;;;;;;;;;;26.43;40.28;94537.00;4987369;28;9351;-57
2023/04/08 09:04:59;;;;;;;;;;;;;;;26.43;40.03;94540.53;5010236;28;8598;-56
2023/04/08 09:07:27;;;;;;;;;;;;;;;26.46;39.66;94538.75;4988141;28;7652;-57
2023/04/08 09:09:57;;;;;;;;;;;;;;;26.47;40.05;94540.25;4996109;28;7451;-57
2023/04/08 09:12:27;;;;;;;;;;;;;;;26.47;40.07;94540.97;4999162;28;7171;-57
2023/04/08 09:15:07;;;;;;;;;;;;;;;26.43;40.65;94540.53;4986554;28;9518;-57
2023/04/08 09:17:38;;;;;;;;;;;;;;;26.39;40.41;94545.56;4984955;28;7501;-57
2023/04/08 09:20:22;;;;;;;;;;;;;;;26.38;40.50;94540.56;5000848;28;8960;-57
2023/04/08 09:23:07;;;;;;;;;;;;;;;26.34;40.57;94543.59;4966961;28;7127;-57
2023/04/08 09:25:44;;;;;;;;;;;;;;;26.35;40.84;94544.34;4991483;28;8675;-57
2023/04/08 09:28:57;;;;;;;;;;;;;;;26.33;41.42;94539.34;5001527;28;7227;-57
2023/04/08 09:31:35;;;;;;;;;;;;;;;26.34;41.08;94540.09;4983770;28;8840;-57
2023/04/08 09:34:16;;;;;;;;;;;;;;;26.40;40.95;94540.81;5017210;28;7019;-57
2023/04/08 09:37:00;;;;;;;;;;;;;;;26.41;40.72;94543.03;4987446;28;7039;-57
2023/04/08 09:39:37;;;;;;;;;;;;;;;26.46;40.96;94531.22;5000672;28;7037;-57
2023/04/08 09:42:35;;;;;;;;;;;;;;;26.49;40.99;94538.47;4987598;28;8750;-57
2023/04/08 09:45:08;;;;;;;;;;;;;;;26.52;41.06;94536.69;5009815;28;7404;-57
2023/04/08 09:48:18;;;;;;;;;;;;;;;26.53;41.09;94536.19;4990319;28;7039;-57
2023/04/08 09:51:12;;;;;;;;;;;;;;;26.57;40.67;94538.66;4981215;28;9066;-57
2023/04/08 09:53:59;;;;;;;;;;;;;;;26.57;40.73;94535.91;4964714;28;9054;-57
2023/04/08 09:57:09;;;;;;;;;;;;;;;26.61;40.57;94544.66;4948129;28;7563;-57
2023/04/08 10:00:07;;;;;;;;;;;;;;;26.63;40.34;94542.13;4900911;29;8736;-57
2023/04/08 10:03:30;;;;;;;;;;;;;;;26.65;40.85;94540.34;4875412;29;8083;-56
2023/04/08 10:06:00;;;;;;;;;;;;;;;26.66;40.44;94541.09;4854030;29;7015;-57
2023/04/08 10:09:10;;;;;;;;;;;;;;;26.69;40.41;94540.06;4833266;29;7457;-57
2023/04/08 10:11:54;;;;;;;;;;;;;;;26.64;40.64;94538.84;4845180;29;7372;-57
2023/04/08 10:14:33;;;;;;;;;;;;;;;26.63;40.78;94542.13;4831672;29;8947;-56
2023/04/08 10:17:29;;;;;;;;;;;;;;;26.62;40.58;94555.16;4846811;29;7871;-57
2023/04/08 10:19:58;;;;;;;;;;;;;;;26.63;40.53;94548.41;4829710;29;7365;-57
2023/04/08 10:22:28;;;;;;;;;;;;;;;26.61;40.99;94544.66;4847726;29;9212;-57
2023/04/08 10:25:18;;;;;;;;;;;;;;;26.59;41.56;94547.19;4849935;29;7039;-57
2023/04/08 10:27:54;;;;;;;;;;;;;;;26.57;41.58;94544.94;4851460;29;7132;-57
2023/04/08 10:30:57;;;;;;;;;;;;;;;26.56;41.98;94537.16;4868009;29;9042;-57
2023/04/08 10:33:35;;;;;;;;;;;;;;;26.54;41.75;94545.94;4872604;29;9091;-57
2023/04/08 10:36:22;;;;;;;;;;;;;;;26.51;42.57;94540.72;4913585;29;7255;-57
2023/04/08 10:39:00;;;;;;;;;;;;;;;26.56;42.70;94537.16;4929607;29;7632;-57
2023/04/08 10:41:42;;;;;;;;;;;;;;;26.63;42.26;94536.59;4929854;29;9343;-57
2023/04/08 10:44:23;;;;;;;;;;;;;;;26.67;41.74;94539.81;4930010;29;7133;-57
2023/04/08 10:47:11;;;;;;;;;;;;;;;26.66;42.15;94535.59;4913723;29;9291;-57
2023/04/08 10:49:38;;;;;;;;;;;;;;;26.68;42.39;94539.34;4952399;28;9089;-57
2023/04/08 10:52:11;;;;;;;;;;;;;;;26.68;41.59;94538.56;4965491;28;9454;-57
2023/04/08 10:54:47;;;;;;;;;;;;;;;26.71;41.41;94538.28;4967845;28;8781;-57
2023/04/08 10:57:34;;;;;;;;;;;;;;;26.73;41.37;94538.53;4951562;28;8233;-57
2023/04/08 11:00:18;;;;;;;;;;;;;;;26.74;40.91;94528.25;4969673;28;7205;-57
2023/04/08 11:02:46;;;;;;;;;;;;;;;26.74;41.22;94531.78;4959826;28;9065;-57
2023/04/08 11:05:22;;;;;;;;;;;;;;;26.76;41.40;94532.00;4952091;28;7130;-57
2023/04/08 11:07:53;;;;;;;;;;;;;;;26.92;40.98;94529.63;4963457;28;8964;-57
2023/04/08 11:10:28;;;;;;;;;;;;;;;27.01;41.02;94527.28;5011940;28;7135;-56
2023/04/08 11:13:32;;;;;;;;;;;;;;;27.24;40.36;94534.06;4987767;28;7080;-57
2023/04/08 11:16:15;;;;;;;;;;;;;;;27.23;40.27;94526.28;4950361;28;7170;-57
2023/04/08 11:18:53;;;;;;;;;;;;;;;27.25;39.92;94524.50;4963271;28;7257;-57
2023/04/08 11:21:27;;;;;;;;;;;;;;;27.24;39.82;94528.53;4969940;28;8997;-57
2023/04/08 11:24:15;;;;;;;;;;;;;;;27.20;40.20;94527.31;4943502;28;9082;-57
2023/04/08 11:26:43;;;;;;;;;;;;;;;27.13;40.33;94520.34;4961908;28;7257;-57
2023/04/08 11:29:42;;;;;;;;;;;;;;;27.08;40.22;94521.16;4968313;28;9471;-58
2023/04/08 11:32:10;;;;;;;;;;;;;;;27.05;40.06;94516.69;4914907;29;7135;-57
2023/04/08 11:34:51;;;;;;;;;;;;;;;27.01;39.85;94518.22;4916549;29;8340;-57
2023/04/08 11:37:19;;;;;;;;;;;;;;;26.97;40.19;94521.25;4913913;29;9081;-57
2023/04/08 11:39:58;;;;;;;;;;;;;;;26.92;40.25;94519.31;4898022;29;7060;-58
2023/04/08 11:42:29;;;;;;;;;;;;;;;26.97;40.91;94521.25;4893368;29;9127;-57
2023/04/08 11:44:56;;;;;;;;;;;;;;;27.02;40.08;94519.72;4910811;29;7305;-57
2023/04/08 11:47:32;;;;;;;;;;;;;;;27.03;40.65;94515.69;4918057;29;7419;-57
2023/04/08 11:50:28;;;;;;;;;;;;;;;27.06;40.13;94514.66;4907528;29;7368;-57
2023/04/08 11:53:18;;;;;;;;;;;;;;;27.03;40.67;94521.97;4914393;29;7287;-57
2023/04/08 11:55:48;;;;;;;;;;;;;;;27.02;40.78;94520.47;4927703;29;7377;-57
2023/04/08 11:58:17;;;;;;;;;;;;;;;27.04;39.83;94520.69;4911519;29;9029;-57
2023/04/08 12:00:44;;;;;;;;;;;;;;;27.04;39.03;94519.94;4931333;28;7067;-57
2023/04/08 12:03:20;;;;;;;;;;;;;;;26.98;39.69;94514.50;4947920;28;7268;-57
2023/04/08 12:06:22;;;;;;;;;;;;;;;26.98;39.82;94519.25;4913172;29;7297;-57
2023/04/08 12:08:58;;;;;;;;;;;;;;;26.93;39.87;94520.81;4974405;28;7106;-57
2023/04/08 12:11:37;;;;;;;;;;;;;;;26.92;39.92;94511.78;5008005;28;9065;-57
2023/04/08 12:14:05;;;;;;;;;;;;;;;26.94;40.38;94510.53;5005501;28;7776;-57
2023/04/08 12:16:42;;;;;;;;;;;;;;;26.95;39.97;94506.50;5010759;28;10165;-57
2023/04/08 12:19:08;;;;;;;;;;;;;;;26.96;39.52;94508.75;5000984;28;9057;-57
2023/04/08 12:21:34;;;;;;;;;;;;;;;26.95;39.68;94503.75;5028005;28;6953;-57
2023/04/08 12:24:00;;;;;;;;;;;;;;;26.92;40.03;94513.81;5027603;28;8779;-57
2023/04/08 12:26:35;;;;;;;;;;;;;;;26.92;40.32;94506.25;5009422;28;7594;-57
2023/04/08 12:29:11;;;;;;;;;;;;;;;26.92;39.83;94510.28;5014623;28;9112;-57
2023/04/08 12:31:38;;;;;;;;;;;;;;;26.90;40.72;94499.78;5004806;28;7192;-55
2023/04/08 12:34:07;;;;;;;;;;;;;;;26.90;40.10;94511.53;5012487;28;7266;-55
2023/04/08 12:36:36;;;;;;;;;;;;;;;26.91;39.26;94512.28;5002796;28;7283;-55
2023/04/08 12:39:03;;;;;;;;;;;;;;;26.92;39.59;94508.28;5017525;28;7068;-55
2023/04/08 12:42:06;;;;;;;;;;;;;;;26.93;39.46;94507.00;5006082;28;8705;-55
2023/04/08 12:44:32;;;;;;;;;;;;;;;26.97;38.98;94510.22;5008260;28;7281;-55
2023/04/08 12:46:59;;;;;;;;;;;;;;;26.97;39.23;94509.50;4990150;28;7781;-55
2023/04/08 12:49:38;;;;;;;;;;;;;;;26.94;38.67;94508.50;5006058;28;7287;-55
2023/04/08 12:52:17;;;;;;;;;;;;;;;26.94;38.83;94500.22;4989113;28;9738;-54
2023/04/08 12:54:52;;;;;;;;;;;;;;;26.95;39.06;94507.22;4992899;28;8960;-54
2023/04/08 12:57:19;;;;;;;;;;;;;;;26.92;38.83;94508.28;5016908;28;8671;-55
2023/04/08 12:59:48;;;;;;;;;;;;;;;26.97;38.28;94509.50;4991593;28;7233;-54
2023/04/08 13:02:24;;;;;;;;;;;;;;;26.98;37.63;94506.22;5010132;28;8703;-54
2023/04/08 13:05:04;;;;;;;;;;;;;;;26.98;38.03;94508.97;4998109;28;7259;-54
2023/04/08 13:07:42;;;;;;;;;;;;;;;26.93;37.56;94504.25;4994590;28;9033;-54
2023/04/08 13:10:31;;;;;;;;;;;;;;;26.94;38.01;94502.25;4990804;28;8793;-54
2023/04/08 13:13:13;;;;;;;;;;;;;;;26.95;37.84;94498.94;5008470;28;7063;-55
2023/04/08 13:15:55;;;;;;;;;;;;;;;26.91;37.99;94509.53;5002950;28;7251;-55
2023/04/08 13:18:37;;;;;;;;;;;;;;;26.92;38.19;94502.00;5005816;28;7046;-55
2023/04/08 13:24:37;;;;;;;;;;;;;;;26.88;38.59;94502.31;5004087;28;7055;-55
2023/04/08 13:27:06;;;;;;;;;;;;;;;26.84;38.59;94494.28;4991777;28;7114;-55
2023/04/08 13:29:34;;;;;;;;;;;;;;;26.89;38.10;94503.78;4984538;28;7951;-55
2023/04/08 13:32:29;;;;;;;;;;;;;;;26.89;38.19;94504.53;4981091;28;8257;-54
2023/04/08 13:34:55;;;;;;;;;;;;;;;26.92;38.62;94502.75;4998812;28;8232;-55
2023/04/08 13:37:26;;;;;;;;;;;;;;;26.95;38.90;94498.94;5002881;28;7233;-54
2023/04/08 13:39:54;;;;;;;;;;;;;;;27.03;37.99;94499.13;4995225;28;7059;-54
2023/04/08 13:42:58;;;;;;;;;;;;;;;27.06;38.13;94496.06;5009160;28;7272;-54
2023/04/08 13:45:24;;;;;;;;;;;;;;;27.06;38.23;94501.59;4907540;29;9321;-54